Aviation Digital Data Service (ADDS)

Output produced by METARs form (0550 UTC 14 February 2016)
found at http://aviationweather.gov/adds/metars/
 
KRME 140541Z 1406/1506 30008KT P6SM BKN050 
     FM141200 30005KT P6SM SCT250